createdAt,value
2019-03-04T11:19:25.190Z,985.01
2019-03-04T11:20:25.148Z,985.19
2019-03-04T11:21:25.136Z,985.23
2019-03-04T11:22:25.127Z,985.32
2019-03-04T11:23:25.120Z,985.39
2019-03-04T11:24:25.112Z,985.63
2019-03-04T11:25:25.097Z,985.69
2019-03-04T11:26:25.085Z,985.64
2019-03-04T11:27:25.076Z,985.86
2019-03-04T11:28:25.064Z,985.81
2019-03-04T11:29:25.075Z,985.69
2019-03-04T11:30:25.038Z,985.89
2019-03-04T11:31:25.029Z,985.75
2019-03-04T11:32:25.020Z,985.80
2019-03-04T11:33:25.009Z,985.90
2019-03-04T11:34:25.020Z,985.97
2019-03-04T11:35:24.998Z,985.87
2019-03-04T11:36:24.977Z,985.82
2019-03-04T11:37:24.966Z,985.99
2019-03-04T11:38:24.957Z,986.01
2019-03-04T11:39:24.954Z,986.09
2019-03-04T11:40:24.933Z,986.01
2019-03-04T11:41:24.920Z,986.05
2019-03-04T11:42:24.913Z,986.11
2019-03-04T11:43:24.903Z,986.23
2019-03-04T11:44:24.917Z,986.17
2019-03-04T11:45:24.881Z,986.33
2019-03-04T11:46:24.929Z,986.16
2019-03-04T11:47:24.858Z,986.23
2019-03-04T11:48:24.848Z,986.26
2019-03-04T11:49:24.864Z,986.27
2019-03-04T11:50:24.827Z,986.24
2019-03-04T11:51:24.822Z,986.20
2019-03-04T11:52:24.807Z,986.13
2019-03-04T11:53:24.796Z,985.83
2019-03-04T11:54:24.784Z,985.73
2019-03-04T11:55:24.782Z,985.80
2019-03-04T11:56:24.764Z,985.81
2019-03-04T11:57:24.766Z,985.81
2019-03-04T11:58:24.744Z,985.81
2019-03-04T11:59:24.729Z,985.74
2019-03-04T12:00:24.724Z,985.64
2019-03-04T12:01:24.707Z,985.56
2019-03-04T12:02:24.704Z,985.50
2019-03-04T12:03:24.695Z,985.70
2019-03-04T12:04:24.675Z,985.55
2019-03-04T12:05:24.669Z,985.50
2019-03-04T12:06:24.656Z,985.43
2019-03-04T12:07:24.640Z,985.41
2019-03-04T12:08:24.631Z,985.46
2019-03-04T12:09:24.621Z,985.46
2019-03-04T12:10:24.620Z,985.42
2019-03-04T12:11:24.601Z,985.44
2019-03-04T12:12:24.591Z,985.47
2019-03-04T12:13:24.578Z,985.42
2019-03-04T12:14:24.568Z,985.33
2019-03-04T12:15:24.566Z,985.28
2019-03-04T12:16:24.550Z,985.27
2019-03-04T12:17:24.534Z,985.12
2019-03-04T12:18:24.525Z,985.39
2019-03-04T12:19:24.510Z,985.38
2019-03-04T12:20:24.508Z,985.36
2019-03-04T12:21:24.493Z,985.27
2019-03-04T12:22:24.482Z,985.26
2019-03-04T12:23:24.469Z,985.13
2019-03-04T12:24:24.459Z,985.11
2019-03-04T12:25:24.454Z,985.15
2019-03-04T12:26:24.437Z,985.03
2019-03-04T12:27:24.426Z,985.09
2019-03-04T12:28:24.417Z,985.13
2019-03-04T12:29:24.409Z,985.12
2019-03-04T12:30:24.403Z,985.09
2019-03-04T12:31:24.385Z,985.16
2019-03-04T12:32:24.379Z,984.99
2019-03-04T12:33:24.360Z,984.92
2019-03-04T12:34:25.050Z,985.09
2019-03-04T12:35:24.347Z,984.93
2019-03-04T12:36:24.337Z,985.01
2019-03-04T12:37:24.315Z,985.05
2019-03-04T12:38:24.306Z,985.04
2019-03-04T12:39:24.298Z,985.15
2019-03-04T12:40:24.298Z,985.01
2019-03-04T12:41:24.273Z,984.96
2019-03-04T12:42:24.263Z,984.96
2019-03-04T12:43:24.251Z,984.86
2019-03-04T12:44:24.304Z,984.82
2019-03-04T12:45:33.694Z,984.95
2019-03-04T12:46:25.222Z,984.88
2019-03-04T12:47:24.207Z,984.90
2019-03-04T12:48:24.196Z,984.81
2019-03-04T12:49:24.191Z,984.85
2019-03-04T12:50:24.203Z,984.73
2019-03-04T12:51:24.172Z,984.89
2019-03-04T12:52:24.159Z,985.05
2019-03-04T12:53:24.148Z,984.97
2019-03-04T12:54:24.134Z,984.97
2019-03-04T12:55:24.171Z,984.95
2019-03-04T12:56:24.111Z,984.86
2019-03-04T12:57:24.105Z,984.75
2019-03-04T12:58:24.092Z,984.74
2019-03-04T12:59:24.094Z,984.72
2019-03-04T13:00:24.070Z,984.77
2019-03-04T13:01:24.070Z,984.66
2019-03-04T13:02:24.048Z,984.67
2019-03-04T13:03:24.042Z,984.72
2019-03-04T13:04:24.026Z,984.73
2019-03-04T13:05:24.013Z,984.62
2019-03-04T13:06:24.018Z,984.73
2019-03-04T13:07:23.991Z,984.63
2019-03-04T13:08:23.992Z,984.60
2019-03-04T13:09:23.972Z,984.55
2019-03-04T13:10:23.978Z,984.50
2019-03-04T13:11:23.965Z,984.55
2019-03-04T13:12:23.939Z,984.47
2019-03-04T13:13:23.927Z,984.59
2019-03-04T13:14:23.922Z,984.52
2019-03-04T13:15:23.930Z,984.47
2019-03-04T13:16:23.913Z,984.60
2019-03-04T13:17:23.885Z,984.29
2019-03-04T13:18:23.873Z,984.36
2019-03-04T13:19:23.870Z,984.43
2019-03-04T13:20:23.858Z,984.37
2019-03-04T13:21:23.862Z,984.27
2019-03-04T13:22:23.830Z,984.50
2019-03-04T13:23:23.831Z,984.42
2019-03-04T13:24:23.809Z,984.32
2019-03-04T13:25:23.802Z,984.34
2019-03-04T13:26:23.798Z,984.32
2019-03-04T13:27:24.188Z,984.26
2019-03-04T13:28:23.768Z,984.12
2019-03-04T13:29:23.759Z,984.29
2019-03-04T13:30:23.744Z,984.43
2019-03-04T13:31:23.744Z,984.30
2019-03-04T13:32:23.722Z,984.31
2019-03-04T13:33:23.713Z,984.20
2019-03-04T13:34:23.705Z,984.30
2019-03-04T13:35:24.733Z,984.24
2019-03-04T13:36:23.715Z,984.13
2019-03-04T13:37:23.681Z,984.18
2019-03-04T13:38:23.659Z,984.16
2019-03-04T13:39:23.649Z,984.26
2019-03-04T13:40:23.645Z,984.20
2019-03-04T13:41:23.629Z,984.07
2019-03-04T13:42:23.626Z,984.07
2019-03-04T13:43:23.603Z,983.85
2019-03-04T13:44:23.599Z,983.92
2019-03-04T13:45:23.592Z,984.01
2019-03-04T13:46:23.582Z,984.02
2019-03-04T13:47:23.574Z,984.04
2019-03-04T13:48:23.548Z,983.96
2019-03-04T13:49:23.540Z,983.88
2019-03-04T13:50:23.530Z,983.85
2019-03-04T13:51:23.518Z,983.78
2019-03-04T13:52:23.528Z,983.84
2019-03-04T13:53:23.495Z,983.90
2019-03-04T13:54:23.485Z,983.87
2019-03-04T13:55:23.487Z,983.82
2019-03-04T13:56:23.468Z,983.80
2019-03-04T13:57:23.462Z,983.75
2019-03-04T13:58:23.442Z,983.63
2019-03-04T13:59:23.436Z,983.65
2019-03-04T14:00:23.423Z,983.80
2019-03-04T14:01:24.538Z,983.87
2019-03-04T14:02:23.421Z,983.75
2019-03-04T14:03:23.390Z,983.68
2019-03-04T14:04:23.379Z,983.79
2019-03-04T14:05:23.371Z,983.58
2019-03-04T14:06:23.359Z,983.66
2019-03-04T14:07:23.355Z,983.61
2019-03-04T14:08:23.338Z,983.54
2019-03-04T14:09:23.326Z,983.66
2019-03-04T14:10:23.314Z,983.54
2019-03-04T14:11:23.302Z,983.61
2019-03-04T14:12:23.300Z,983.65
2019-03-04T14:13:23.283Z,983.82
2019-03-04T14:14:23.269Z,983.66
2019-03-04T14:15:23.308Z,983.88
2019-03-04T14:16:23.247Z,983.77
2019-03-04T14:17:23.252Z,983.70
2019-03-04T14:18:23.228Z,983.67
2019-03-04T14:19:23.216Z,983.69
2019-03-04T14:20:23.205Z,983.53
2019-03-04T14:21:23.208Z,983.89
2019-03-04T14:22:23.208Z,983.93
2019-03-04T14:23:23.178Z,983.74
2019-03-04T14:24:23.175Z,983.74
2019-03-04T14:25:23.152Z,983.83
2019-03-04T14:26:23.180Z,983.85
2019-03-04T14:27:23.140Z,983.79
2019-03-04T14:28:23.118Z,983.81
2019-03-04T14:29:23.112Z,983.84
2019-03-04T14:30:23.098Z,983.82
2019-03-04T14:31:23.087Z,983.74
2019-03-04T14:32:23.456Z,983.79
2019-03-04T14:33:23.072Z,983.73
2019-03-04T14:34:23.057Z,983.86
2019-03-04T14:35:23.045Z,983.99
2019-03-04T14:36:23.041Z,983.89
2019-03-04T14:37:23.040Z,983.64
2019-03-04T14:38:23.010Z,983.85
2019-03-04T14:39:23.001Z,983.87
2019-03-04T14:40:22.993Z,983.99
2019-03-04T14:41:22.989Z,983.97
2019-03-04T14:42:22.979Z,983.79
2019-03-04T14:43:22.977Z,983.91
2019-03-04T14:44:22.950Z,983.76
2019-03-04T14:45:22.939Z,983.72
2019-03-04T14:46:22.924Z,983.93
2019-03-04T14:47:22.929Z,983.79
2019-03-04T14:48:22.903Z,983.83
2019-03-04T14:49:22.898Z,984.08
2019-03-04T14:50:22.881Z,983.83
2019-03-04T14:51:22.871Z,984.08
2019-03-04T14:52:22.883Z,984.01
2019-03-04T14:53:22.856Z,983.95
2019-03-04T14:54:22.845Z,983.93
2019-03-04T14:55:22.834Z,984.08
2019-03-04T14:56:22.913Z,984.04
2019-03-04T14:57:22.966Z,983.92
2019-03-04T14:58:22.795Z,983.87
2019-03-04T14:59:22.787Z,983.90
2019-03-04T15:00:22.778Z,983.94
2019-03-04T15:01:22.771Z,983.91
2019-03-04T15:02:23.467Z,984.00
2019-03-04T15:03:23.953Z,984.05
2019-03-04T15:04:22.730Z,983.97
2019-03-04T15:05:22.728Z,983.95
2019-03-04T15:06:22.711Z,984.07
2019-03-04T15:07:22.701Z,984.07
2019-03-04T15:08:22.696Z,984.15
2019-03-04T15:09:22.679Z,983.94
2019-03-04T15:10:22.667Z,984.05
2019-03-04T15:11:22.670Z,983.85
2019-03-04T15:12:22.649Z,984.04
2019-03-04T15:13:22.645Z,983.82
2019-03-04T15:14:22.629Z,983.99
2019-03-04T15:15:22.614Z,983.85
2019-03-04T15:16:22.607Z,983.76
2019-03-04T15:17:22.596Z,983.84
2019-03-04T15:18:22.598Z,983.68
2019-03-04T15:19:22.574Z,983.79
2019-03-04T15:20:22.613Z,983.78
2019-03-04T15:21:22.547Z,983.72
2019-03-04T15:22:22.537Z,983.75
2019-03-04T15:23:22.539Z,983.81
2019-03-04T15:24:22.533Z,983.70
2019-03-04T15:25:22.504Z,983.80
2019-03-04T15:26:22.493Z,983.84
2019-03-04T15:27:22.486Z,983.72
2019-03-04T15:28:22.482Z,983.79
2019-03-04T15:29:22.471Z,983.91
2019-03-04T15:30:22.453Z,983.74
2019-03-04T15:31:22.442Z,983.87
2019-03-04T15:32:22.697Z,983.57
2019-03-04T15:33:22.443Z,983.64
2019-03-04T15:34:22.415Z,983.85
2019-03-04T15:35:22.399Z,983.61
2019-03-04T15:36:22.388Z,983.81
2019-03-04T15:37:22.382Z,983.73
2019-03-04T15:38:22.382Z,983.67
2019-03-04T15:39:23.371Z,983.62
2019-03-04T15:40:22.347Z,983.76
2019-03-04T15:41:22.334Z,983.52
2019-03-04T15:42:22.325Z,983.39
2019-03-04T15:43:22.320Z,983.49
2019-03-04T15:44:22.308Z,983.70
2019-03-04T15:45:22.289Z,983.49
2019-03-04T15:46:22.288Z,983.33
2019-03-04T15:47:22.268Z,983.54
2019-03-04T15:48:22.266Z,983.36
2019-03-04T15:49:22.297Z,983.58
2019-03-04T15:50:22.236Z,983.44
2019-03-04T15:51:22.242Z,983.47
2019-03-04T15:52:22.215Z,983.41
2019-03-04T15:53:22.213Z,983.26
2019-03-04T15:54:22.194Z,983.27
2019-03-04T15:55:22.181Z,983.21
2019-03-04T15:56:22.175Z,983.36
2019-03-04T15:57:22.159Z,983.38
2019-03-04T15:58:22.159Z,983.36
2019-03-04T15:59:22.142Z,983.73
2019-03-04T16:00:22.130Z,983.46
2019-03-04T16:01:22.121Z,983.56
2019-03-04T16:02:22.106Z,983.80
2019-03-04T16:03:22.134Z,983.88
2019-03-04T16:04:22.089Z,984.60
2019-03-04T16:05:22.073Z,985.14
2019-03-04T16:06:22.061Z,985.37
2019-03-04T16:07:22.051Z,985.58
2019-03-04T16:08:22.041Z,985.65
2019-03-04T16:09:22.038Z,985.85
2019-03-04T16:10:22.020Z,985.84
2019-03-04T16:11:22.009Z,985.93
2019-03-04T16:12:22.018Z,985.78
2019-03-04T16:13:21.987Z,985.82
2019-03-04T16:14:21.990Z,985.99
2019-03-04T16:15:21.972Z,985.97
2019-03-04T16:16:21.956Z,985.94
2019-03-04T16:17:21.941Z,985.97
2019-03-04T16:18:21.936Z,985.87
2019-03-04T16:19:23.592Z,985.89
2019-03-04T16:20:21.912Z,986.03
2019-03-04T16:21:21.902Z,986.05
2019-03-04T16:22:21.894Z,986.05
2019-03-04T16:23:21.885Z,986.04
2019-03-04T16:24:21.877Z,986.05
2019-03-04T16:25:21.861Z,986.09
2019-03-04T16:26:21.848Z,986.09
2019-03-04T16:27:21.836Z,985.96
2019-03-04T16:28:21.826Z,986.02
2019-03-04T16:29:21.873Z,985.94
2019-03-04T16:30:21.807Z,985.97
2019-03-04T16:31:21.795Z,985.97
2019-03-04T16:32:21.799Z,986.14
2019-03-04T16:33:21.779Z,986.24
2019-03-04T16:34:21.768Z,986.13
2019-03-04T16:35:21.752Z,986.19
2019-03-04T16:36:21.795Z,986.13
2019-03-04T16:37:21.735Z,986.24
2019-03-04T16:38:21.722Z,986.13
2019-03-04T16:39:21.719Z,986.13
2019-03-04T16:40:21.697Z,986.15
2019-03-04T16:41:21.735Z,986.18
2019-03-04T16:42:21.676Z,986.16
2019-03-04T16:43:21.666Z,986.15
2019-03-04T16:44:21.660Z,986.09
2019-03-04T16:45:21.645Z,986.25
2019-03-04T16:46:21.632Z,986.26
2019-03-04T16:47:21.627Z,986.29
2019-03-04T16:48:21.611Z,986.30
2019-03-04T16:49:21.613Z,986.37
2019-03-04T16:50:21.589Z,986.29
2019-03-04T16:51:21.578Z,986.36
2019-03-04T16:52:21.565Z,986.55
2019-03-04T16:53:21.555Z,986.34
2019-03-04T16:54:21.551Z,986.33
2019-03-04T16:55:21.537Z,986.41
2019-03-04T16:56:21.526Z,986.25
2019-03-04T16:57:21.513Z,986.53
2019-03-04T16:58:21.509Z,986.43
2019-03-04T16:59:21.520Z,986.40
2019-03-04T17:00:21.484Z,986.49
2019-03-04T17:01:21.480Z,986.47
2019-03-04T17:02:21.457Z,986.41
2019-03-04T17:03:21.455Z,986.48
2019-03-04T17:04:21.449Z,986.46
2019-03-04T17:05:21.434Z,986.46
2019-03-04T17:06:21.418Z,986.54
2019-03-04T17:07:21.400Z,986.51
2019-03-04T17:08:21.391Z,986.51
2019-03-04T17:09:21.389Z,986.55
2019-03-04T17:10:21.374Z,986.46
2019-03-04T17:11:21.358Z,986.52
2019-03-04T17:12:21.346Z,986.48
2019-03-04T17:13:21.341Z,986.47
2019-03-04T17:14:21.366Z,986.44
2019-03-04T17:15:21.313Z,986.45
2019-03-04T17:16:21.303Z,986.51
2019-03-04T17:17:21.293Z,986.47
2019-03-04T17:18:21.283Z,986.45
2019-03-04T17:19:21.275Z,986.45
2019-03-04T17:20:21.276Z,986.54
2019-03-04T17:21:21.249Z,986.59
2019-03-04T17:22:21.238Z,986.57
2019-03-04T17:23:21.230Z,986.55
2019-03-04T17:24:21.220Z,986.57
2019-03-04T17:25:21.219Z,986.65
2019-03-04T17:26:21.196Z,986.64
2019-03-04T17:27:21.185Z,986.71
2019-03-04T17:28:21.174Z,986.70
2019-03-04T17:29:21.167Z,986.75
2019-03-04T17:30:21.165Z,986.76
2019-03-04T17:31:21.146Z,986.84
2019-03-04T17:32:21.153Z,986.79
2019-03-04T17:33:21.122Z,986.85
2019-03-04T17:34:21.108Z,986.89
2019-03-04T17:35:21.106Z,986.97
2019-03-04T17:36:21.089Z,987.02
2019-03-04T17:37:21.082Z,986.99
2019-03-04T17:38:21.067Z,987.06
2019-03-04T17:39:21.058Z,987.05
2019-03-04T17:40:21.052Z,987.09
2019-03-04T17:41:21.033Z,987.13
2019-03-04T17:42:21.025Z,987.10
2019-03-04T17:43:21.028Z,987.18
2019-03-04T17:44:21.001Z,987.11
2019-03-04T17:45:20.999Z,987.16
2019-03-04T17:46:20.980Z,987.17
2019-03-04T17:47:20.971Z,987.12
2019-03-04T17:48:20.966Z,987.16
2019-03-04T17:49:20.951Z,987.28
2019-03-04T17:50:20.953Z,987.23
2019-03-04T17:51:20.928Z,987.31
2019-03-04T17:52:20.917Z,987.29
2019-03-04T17:53:20.908Z,987.32
2019-03-04T17:54:20.897Z,987.30
2019-03-04T17:55:20.900Z,987.20
2019-03-04T17:56:20.877Z,987.26
2019-03-04T17:57:20.865Z,987.25
2019-03-04T17:58:20.854Z,987.30
2019-03-04T17:59:20.843Z,987.34
2019-03-04T18:00:20.872Z,987.34
2019-03-04T18:01:20.825Z,987.22
2019-03-04T18:02:20.835Z,987.26
2019-03-04T18:03:20.803Z,987.32
2019-03-04T18:04:20.790Z,987.39
2019-03-04T18:05:20.795Z,987.34
2019-03-04T18:06:20.767Z,987.35
2019-03-04T18:07:20.757Z,987.42
2019-03-04T18:08:20.749Z,987.45
2019-03-04T18:09:20.738Z,987.37
2019-03-04T18:10:20.738Z,987.46
2019-03-04T18:11:20.727Z,987.43
2019-03-04T18:12:20.704Z,987.43
2019-03-04T18:13:20.696Z,987.49
2019-03-04T18:14:20.681Z,987.51
2019-03-04T18:15:20.680Z,987.49
2019-03-04T18:16:20.660Z,987.44
2019-03-04T18:17:20.761Z,987.48
2019-03-04T18:18:20.640Z,987.58
2019-03-04T18:19:20.635Z,987.54
2019-03-04T18:20:20.646Z,987.54
2019-03-04T18:21:20.607Z,987.58
2019-03-04T18:22:20.595Z,987.58
2019-03-04T18:23:20.587Z,987.58
2019-03-04T18:24:20.574Z,987.58
2019-03-04T18:25:20.563Z,987.48
2019-03-04T18:26:20.561Z,987.57
2019-03-04T18:27:20.542Z,987.54
2019-03-04T18:28:20.531Z,987.48
2019-03-04T18:29:20.520Z,987.62
2019-03-04T18:30:20.512Z,987.60
2019-03-04T18:31:20.510Z,987.49
2019-03-04T18:32:20.494Z,987.57
2019-03-04T18:33:20.475Z,987.56
2019-03-04T18:34:20.465Z,987.57
2019-03-04T18:35:20.454Z,987.55
2019-03-04T18:36:20.454Z,987.61
2019-03-04T18:37:20.433Z,987.55
2019-03-04T18:38:20.422Z,987.51
2019-03-04T18:39:20.412Z,987.55
2019-03-04T18:40:20.401Z,987.54
2019-03-04T18:41:20.401Z,987.54
2019-03-04T18:42:20.378Z,987.62
2019-03-04T18:43:20.370Z,987.64
2019-03-04T18:44:20.367Z,987.55
2019-03-04T18:45:20.346Z,987.63
2019-03-04T18:46:20.354Z,987.66
2019-03-04T18:47:20.329Z,987.60
2019-03-04T18:48:20.322Z,987.65
2019-03-04T18:49:20.370Z,987.73
2019-03-04T18:50:20.305Z,987.66
2019-03-04T18:51:20.302Z,987.70
2019-03-04T18:52:20.282Z,987.80
2019-03-04T18:53:20.272Z,987.79
2019-03-04T18:54:20.252Z,987.83
2019-03-04T18:55:20.265Z,987.74
2019-03-04T18:56:22.214Z,987.76
2019-03-04T18:57:20.226Z,987.80
2019-03-04T18:58:20.209Z,987.75
2019-03-04T18:59:20.196Z,987.89
2019-03-04T19:00:20.193Z,987.76
2019-03-04T19:01:20.185Z,987.91
2019-03-04T19:02:20.164Z,987.89
2019-03-04T19:03:20.166Z,987.76
2019-03-04T19:04:20.147Z,987.92
2019-03-04T19:05:20.138Z,987.89
2019-03-04T19:06:20.139Z,987.89
2019-03-04T19:07:20.113Z,987.97
2019-03-04T19:08:20.106Z,987.95
2019-03-04T19:09:20.109Z,987.97
2019-03-04T19:10:20.085Z,987.86
2019-03-04T19:11:20.078Z,987.94
2019-03-04T19:12:20.059Z,988.03
2019-03-04T19:13:20.050Z,988.11
2019-03-04T19:14:20.042Z,988.06
2019-03-04T19:15:20.024Z,988.16
2019-03-04T19:16:20.026Z,988.16
2019-03-04T19:17:20.015Z,988.28
2019-03-04T19:18:19.992Z,988.20
2019-03-04T19:19:19.984Z,988.30
2019-03-04T19:20:19.971Z,988.32
2019-03-04T19:21:19.997Z,988.29
2019-03-04T19:22:20.444Z,988.24
2019-03-04T19:23:19.944Z,988.32
2019-03-04T19:24:19.933Z,988.31
2019-03-04T19:25:19.921Z,988.33
2019-03-04T19:26:19.908Z,988.30
2019-03-04T19:27:19.906Z,988.32
2019-03-04T19:28:19.886Z,988.39
2019-03-04T19:29:19.875Z,988.38
2019-03-04T19:30:19.869Z,988.42
2019-03-04T19:31:19.854Z,988.48
2019-03-04T19:32:19.851Z,988.47
2019-03-04T19:33:19.834Z,988.53
2019-03-04T19:34:19.821Z,988.56
2019-03-04T19:35:19.812Z,988.51
2019-03-04T19:36:19.801Z,988.51
2019-03-04T19:37:19.803Z,988.55
2019-03-04T19:38:19.836Z,988.41
2019-03-04T19:39:19.769Z,988.50
2019-03-04T19:40:19.758Z,988.51
2019-03-04T19:41:19.748Z,988.58
2019-03-04T19:42:19.746Z,988.57
2019-03-04T19:43:19.725Z,988.49
2019-03-04T19:44:19.718Z,988.48
2019-03-04T19:45:19.712Z,988.42
2019-03-04T19:46:19.697Z,988.55
2019-03-04T19:47:19.697Z,988.47
2019-03-04T19:48:19.673Z,988.56
2019-03-04T19:49:19.664Z,988.57
2019-03-04T19:50:19.654Z,988.50
2019-03-04T19:51:19.642Z,988.65
2019-03-04T19:52:19.639Z,988.69
2019-03-04T19:53:19.626Z,988.58
2019-03-04T19:54:19.610Z,988.61
2019-03-04T19:55:19.600Z,988.59
2019-03-04T19:56:19.590Z,988.72
2019-03-04T19:57:19.623Z,988.60
2019-03-04T19:58:19.566Z,988.67
2019-03-04T19:59:19.557Z,988.69
2019-03-04T20:00:19.547Z,988.63
2019-03-04T20:01:19.536Z,988.75
2019-03-04T20:02:19.526Z,988.79
2019-03-04T20:03:19.526Z,988.78
2019-03-04T20:04:19.503Z,988.88
2019-03-04T20:05:19.493Z,988.59
2019-03-04T20:06:19.481Z,988.87
2019-03-04T20:07:19.471Z,988.83
2019-03-04T20:08:19.470Z,988.86
2019-03-04T20:09:19.449Z,988.83
2019-03-04T20:10:19.442Z,988.92
2019-03-04T20:11:19.428Z,988.93
2019-03-04T20:12:19.417Z,988.83
2019-03-04T20:13:19.418Z,988.96
2019-03-04T20:14:19.394Z,988.91
2019-03-04T20:15:19.387Z,988.85
2019-03-04T20:16:19.396Z,988.96
2019-03-04T20:17:19.363Z,988.91
2019-03-04T20:18:19.362Z,988.91
2019-03-04T20:19:19.342Z,988.99
2019-03-04T20:20:19.333Z,989.02
2019-03-04T20:21:19.324Z,988.85
2019-03-04T20:22:19.318Z,988.85
2019-03-04T20:23:19.309Z,988.90
2019-03-04T20:24:19.289Z,988.99
2019-03-04T20:25:19.277Z,988.92
2019-03-04T20:26:19.279Z,988.91
2019-03-04T20:27:19.259Z,988.99
2019-03-04T20:28:19.259Z,988.97
2019-03-04T20:29:19.238Z,989.12
2019-03-04T20:30:19.224Z,989.01
2019-03-04T20:31:19.223Z,988.98
2019-03-04T20:32:19.202Z,988.93
2019-03-04T20:33:19.211Z,989.01
2019-03-04T20:34:19.181Z,988.93
2019-03-04T20:35:19.174Z,989.02
2019-03-04T20:36:19.161Z,989.10
2019-03-04T20:37:19.151Z,989.02
2019-03-04T20:38:19.154Z,989.08
2019-03-04T20:39:19.128Z,989.04
2019-03-04T20:40:19.120Z,989.08
2019-03-04T20:41:19.109Z,989.12
2019-03-04T20:42:19.098Z,989.07
2019-03-04T20:43:19.094Z,989.21
2019-03-04T20:44:19.074Z,989.12
2019-03-04T20:45:19.066Z,989.15
2019-03-04T20:46:19.056Z,989.28
2019-03-04T20:47:19.043Z,989.28
2019-03-04T20:48:19.041Z,989.26
2019-03-04T20:49:19.044Z,989.20
2019-03-04T20:50:19.010Z,989.26
2019-03-04T20:51:19.001Z,989.25
2019-03-04T20:52:18.991Z,989.34
2019-03-04T20:53:18.992Z,989.34
2019-03-04T20:54:18.973Z,989.39
2019-03-04T20:55:18.965Z,989.28
2019-03-04T20:56:18.948Z,989.38
2019-03-04T20:57:18.938Z,989.29
2019-03-04T20:58:18.935Z,989.45
2019-03-04T20:59:18.915Z,989.48
2019-03-04T21:00:18.915Z,989.44
2019-03-04T21:01:18.893Z,989.53
2019-03-04T21:02:18.886Z,989.35
2019-03-04T21:03:18.908Z,989.39
2019-03-04T21:04:18.862Z,989.43
2019-03-04T21:05:18.905Z,989.39
2019-03-04T21:06:18.844Z,989.47
2019-03-04T21:07:18.832Z,989.54
2019-03-04T21:08:18.821Z,989.52
2019-03-04T21:09:18.818Z,989.47
2019-03-04T21:10:18.798Z,989.57
2019-03-04T21:11:18.788Z,989.52
2019-03-04T21:12:18.778Z,989.55
2019-03-04T21:13:18.767Z,989.58
2019-03-04T21:14:18.769Z,989.61
2019-03-04T21:15:18.756Z,989.62
2019-03-04T21:16:18.733Z,989.52
2019-03-04T21:17:18.729Z,989.74
2019-03-04T21:18:18.713Z,989.53
2019-03-04T21:19:18.711Z,989.62
2019-03-04T21:20:18.698Z,989.64
2019-03-04T21:21:18.686Z,989.57
2019-03-04T21:22:18.670Z,989.57
2019-03-04T21:23:18.664Z,989.69
2019-03-04T21:24:18.663Z,989.73
2019-03-04T21:25:18.637Z,989.71
2019-03-04T21:26:18.629Z,989.72
2019-03-04T21:27:18.616Z,989.76
2019-03-04T21:28:18.604Z,989.72
2019-03-04T21:29:18.611Z,989.81
2019-03-04T21:30:18.584Z,989.88
2019-03-04T21:31:18.574Z,989.84
2019-03-04T21:32:18.566Z,989.85
2019-03-04T21:33:18.552Z,989.85
2019-03-04T21:34:18.550Z,989.95
2019-03-04T21:35:18.532Z,989.84
2019-03-04T21:36:18.523Z,989.94
2019-03-04T21:37:18.516Z,989.91
2019-03-04T21:38:18.498Z,989.98
2019-03-04T21:39:18.499Z,989.90
2019-03-04T21:40:18.482Z,990.01
2019-03-04T21:41:18.468Z,990.03
2019-03-04T21:42:18.467Z,990.02
2019-03-04T21:43:18.446Z,990.07
2019-03-04T21:44:18.444Z,990.09
2019-03-04T21:45:18.425Z,989.97
2019-03-04T21:46:18.415Z,990.03
2019-03-04T21:47:18.435Z,990.01
2019-03-04T21:48:18.401Z,989.99
2019-03-04T21:49:18.406Z,990.13
2019-03-04T21:50:18.370Z,990.10
2019-03-04T21:51:18.367Z,990.14
2019-03-04T21:52:20.615Z,990.18
2019-03-04T21:53:18.351Z,990.12
2019-03-04T21:54:18.365Z,990.20
2019-03-04T21:55:18.335Z,990.22
2019-03-04T21:56:18.309Z,990.24
2019-03-04T21:57:18.309Z,990.23
2019-03-04T21:58:18.285Z,990.22
2019-03-04T21:59:18.287Z,990.26
2019-03-04T22:00:18.262Z,990.32
2019-03-04T22:01:18.252Z,990.33
2019-03-04T22:02:18.240Z,990.33
2019-03-04T22:03:18.230Z,990.43
2019-03-04T22:04:18.229Z,990.33
2019-03-04T22:05:18.224Z,990.37
2019-03-04T22:06:18.200Z,990.41
2019-03-04T22:07:18.210Z,990.34
2019-03-04T22:08:18.183Z,990.55
2019-03-04T22:09:18.187Z,990.46
2019-03-04T22:10:18.155Z,990.47
2019-03-04T22:11:18.160Z,990.48
2019-03-04T22:12:18.151Z,990.64
2019-03-04T22:13:18.128Z,990.44
2019-03-04T22:14:18.121Z,990.60
2019-03-04T22:15:18.104Z,990.54
2019-03-04T22:16:18.100Z,990.51
2019-03-04T22:17:18.078Z,990.53
2019-03-04T22:18:18.070Z,990.58
2019-03-04T22:19:18.064Z,990.64
2019-03-04T22:20:18.072Z,990.70
2019-03-04T22:21:18.047Z,990.64
2019-03-04T22:22:18.033Z,990.68
2019-03-04T22:23:18.013Z,990.80
2019-03-04T22:24:18.013Z,990.58
2019-03-04T22:25:18.010Z,990.61
2019-03-04T22:26:17.993Z,990.73
2019-03-04T22:27:17.976Z,990.80
2019-03-04T22:28:17.960Z,990.76
2019-03-04T22:29:17.964Z,990.79
2019-03-04T22:30:17.961Z,990.79
2019-03-04T22:31:17.948Z,990.76
2019-03-04T22:32:17.938Z,990.68
2019-03-04T22:33:17.935Z,990.89
2019-03-04T22:34:17.905Z,990.95
2019-03-04T22:35:17.913Z,990.97
2019-03-04T22:36:17.874Z,990.90
2019-03-04T22:37:17.862Z,991.02
2019-03-04T22:38:17.853Z,990.95
2019-03-04T22:39:17.867Z,991.04
2019-03-04T22:40:17.831Z,991.07
2019-03-04T22:41:17.821Z,990.97
2019-03-04T22:42:17.810Z,990.98
2019-03-04T22:43:17.807Z,991.12
2019-03-04T22:44:17.817Z,991.04
2019-03-04T22:45:17.776Z,991.00
2019-03-04T22:46:17.767Z,991.13
2019-03-04T22:47:17.767Z,991.10
2019-03-04T22:48:17.745Z,991.22
2019-03-04T22:49:17.767Z,991.14
2019-03-04T22:50:17.801Z,991.18
2019-03-04T22:51:17.731Z,991.21
2019-03-04T22:52:17.721Z,991.19
2019-03-04T22:53:17.692Z,991.17
2019-03-04T22:54:17.693Z,991.16
2019-03-04T22:55:17.688Z,991.42
2019-03-04T22:56:17.661Z,991.13
2019-03-04T22:57:17.673Z,991.20
2019-03-04T22:58:28.249Z,991.11
2019-03-04T22:59:18.703Z,991.18
2019-03-04T23:00:17.617Z,991.17
2019-03-04T23:01:17.608Z,991.31
2019-03-04T23:02:17.616Z,991.20
2019-03-04T23:03:17.585Z,991.39
2019-03-04T23:04:17.578Z,991.20
2019-03-04T23:05:17.575Z,991.36
2019-03-04T23:06:17.553Z,991.37
2019-03-04T23:07:18.505Z,991.38
2019-03-04T23:08:17.531Z,991.27
2019-03-04T23:09:17.521Z,991.30
2019-03-04T23:10:17.535Z,991.24
2019-03-04T23:11:17.498Z,991.35
2019-03-04T23:12:17.489Z,991.34
2019-03-04T23:13:17.478Z,991.38
2019-03-04T23:14:17.467Z,991.35
2019-03-04T23:15:17.466Z,991.49
2019-03-04T23:16:17.446Z,991.44
2019-03-04T23:17:17.441Z,991.45
2019-03-04T23:18:17.425Z,991.42
2019-03-04T23:19:17.420Z,991.41
2019-03-04T23:20:17.413Z,991.50
2019-03-04T23:21:17.393Z,991.47
2019-03-04T23:22:17.382Z,991.58
2019-03-04T23:23:17.371Z,991.63
2019-03-04T23:24:17.359Z,991.44
2019-03-04T23:25:17.365Z,991.51
2019-03-04T23:26:17.349Z,991.65
2019-03-04T23:27:17.327Z,991.46
2019-03-04T23:28:17.321Z,991.58
2019-03-04T23:29:17.307Z,991.51
2019-03-04T23:30:17.307Z,991.64
2019-03-04T23:31:17.286Z,991.52
2019-03-04T23:32:17.276Z,991.60
2019-03-04T23:33:17.267Z,991.53
2019-03-04T23:34:17.253Z,991.51
2019-03-04T23:35:17.257Z,991.53
2019-03-04T23:36:17.236Z,991.62
2019-03-04T23:37:17.223Z,991.49
2019-03-04T23:38:17.210Z,991.59
2019-03-04T23:39:17.200Z,991.51
2019-03-04T23:40:17.198Z,991.57
2019-03-04T23:41:17.177Z,991.54
2019-03-04T23:42:17.171Z,991.62
2019-03-04T23:43:17.156Z,991.68
2019-03-04T23:44:17.146Z,991.51
2019-03-04T23:45:17.146Z,991.66
2019-03-04T23:46:17.126Z,991.67
2019-03-04T23:47:17.114Z,991.61